Capitol Logistics 222


KSEA
Seattle-Tacoma International Airport
Seattle, Washington, US
KSMF
Sacramento International Airport
Sacramento, California, US

Activity Log

Date Flight Route Aircraft Duration
06/27/2019 CPX222 SUMMA1 SUMMA JINMO LMT TUDOR2 B763 1h 37m
05/07/2019 CPX222 SUMMA1 SUMMA JINMO LMT TUDOR2 B763 1h 30m

Route Details

Aircraft Information
Primary: Boeing 767-300BDSF
Backup: Not Available
Route Data
Distance: 527nm
Sched. Duration: 1h 21m
Avg. Duration: 1h 33m (+12m)
Times Flown: 2
Recm'd Route: SUMMA1 SUMMA JINMO LMT TUDOR2
Planned Altitude: 37,000ft
Origin Wx: KSEA 261153Z 01007KT 6SM BR BKN005 OVC010 12/10 A3012 RMK AO2 SLP205 70010 T01170100 10139 20117 53001
Dest. Wx: KSMF 261153Z 00000KT 10SM CLR 21/12 A2982 RMK AO2 SLP097 T02110122 10267 20211 53002
Notes:

Financial History
Total Freight: 105,046lbs
Average Load: 52,523lbs/flt
Fuel Used: 26,254lbs
Avg. Fuel Used: 13,127lbs/flt
Fuel Expense: $29,404
Avg. Fuel Expense: $14,702
Avg. Fuel Cost: $1.12/lbs
Total Gross Income: $130,257
Pilot Pay: $298
Total Expenses: $14,172
Total Revenue: $85,932
Average Revenue: $65,128.52